sensor_id;sensor_type;location;lat;lon;timestamp;temperature;humidity
1453;DHT22;720;47.738;7.998;2022-08-19T00:01:20;17.30;99.90
1453;DHT22;720;47.738;7.998;2022-08-19T00:03:47;17.20;99.90
1453;DHT22;720;47.738;7.998;2022-08-19T00:06:13;17.30;99.90
1453;DHT22;720;47.738;7.998;2022-08-19T00:08:39;17.30;99.90
1453;DHT22;720;47.738;7.998;2022-08-19T00:11:05;17.30;99.90
1453;DHT22;720;47.738;7.998;2022-08-19T00:13:31;17.40;99.90
1453;DHT22;720;47.738;7.998;2022-08-19T00:15:57;17.30;99.90
1453;DHT22;720;47.738;7.998;2022-08-19T00:18:24;17.30;99.90
1453;DHT22;720;47.738;7.998;2022-08-19T00:20:50;17.30;99.90
1453;DHT22;720;47.738;7.998;2022-08-19T00:23:16;17.20;99.90
1453;DHT22;720;47.738;7.998;2022-08-19T00:25:42;17.20;99.90
1453;DHT22;720;47.738;7.998;2022-08-19T00:28:08;17.20;99.90
1453;DHT22;720;47.738;7.998;2022-08-19T00:30:33;17.30;99.90
1453;DHT22;720;47.738;7.998;2022-08-19T00:32:59;17.40;99.90
1453;DHT22;720;47.738;7.998;2022-08-19T00:35:25;17.40;99.90
1453;DHT22;720;47.738;7.998;2022-08-19T00:37:53;17.40;99.90
1453;DHT22;720;47.738;7.998;2022-08-19T00:40:19;17.30;99.90
1453;DHT22;720;47.738;7.998;2022-08-19T00:42:46;17.30;99.90
1453;DHT22;720;47.738;7.998;2022-08-19T00:45:14;17.30;99.90
1453;DHT22;720;47.738;7.998;2022-08-19T00:47:42;17.20;99.90
1453;DHT22;720;47.738;7.998;2022-08-19T00:50:08;17.20;99.90
1453;DHT22;720;47.738;7.998;2022-08-19T00:52:43;17.20;99.90
1453;DHT22;720;47.738;7.998;2022-08-19T00:55:14;17.20;99.90
1453;DHT22;720;47.738;7.998;2022-08-19T00:57:44;17.20;99.90
1453;DHT22;720;47.738;7.998;2022-08-19T01:00:13;17.20;99.90
1453;DHT22;720;47.738;7.998;2022-08-19T01:02:41;17.20;99.90
1453;DHT22;720;47.738;7.998;2022-08-19T01:05:11;17.10;99.90
1453;DHT22;720;47.738;7.998;2022-08-19T01:07:39;17.10;99.90
1453;DHT22;720;47.738;7.998;2022-08-19T01:10:10;17.20;99.90
1453;DHT22;720;47.738;7.998;2022-08-19T01:12:37;17.20;99.90
1453;DHT22;720;47.738;7.998;2022-08-19T01:15:06;17.30;99.90
1453;DHT22;720;47.738;7.998;2022-08-19T01:17:33;17.30;99.90
1453;DHT22;720;47.738;7.998;2022-08-19T01:19:59;17.30;99.90
1453;DHT22;720;47.738;7.998;2022-08-19T01:22:40;17.30;99.90
1453;DHT22;720;47.738;7.998;2022-08-19T01:25:08;17.30;99.90
1453;DHT22;720;47.738;7.998;2022-08-19T01:27:39;17.20;99.90
1453;DHT22;720;47.738;7.998;2022-08-19T01:30:07;17.20;99.90
1453;DHT22;720;47.738;7.998;2022-08-19T01:32:32;17.20;99.90
1453;DHT22;720;47.738;7.998;2022-08-19T01:34:58;17.20;99.90
1453;DHT22;720;47.738;7.998;2022-08-19T01:37:27;17.20;99.90
1453;DHT22;720;47.738;7.998;2022-08-19T01:39:52;17.20;99.90
1453;DHT22;720;47.738;7.998;2022-08-19T01:42:18;17.20;99.90
1453;DHT22;720;47.738;7.998;2022-08-19T01:44:45;17.20;99.90
1453;DHT22;720;47.738;7.998;2022-08-19T01:47:10;17.20;99.90
1453;DHT22;720;47.738;7.998;2022-08-19T01:49:36;17.10;99.90
1453;DHT22;720;47.738;7.998;2022-08-19T01:52:04;17.10;99.90
1453;DHT22;720;47.738;7.998;2022-08-19T01:54:30;17.10;99.90
1453;DHT22;720;47.738;7.998;2022-08-19T01:57:08;17.10;99.90
1453;DHT22;720;47.738;7.998;2022-08-19T01:59:36;17.00;99.90
1453;DHT22;720;47.738;7.998;2022-08-19T02:02:04;17.10;99.90
1453;DHT22;720;47.738;7.998;2022-08-19T02:04:33;17.10;99.90
1453;DHT22;720;47.738;7.998;2022-08-19T02:06:59;17.10;99.90
1453;DHT22;720;47.738;7.998;2022-08-19T02:09:25;17.10;99.90
1453;DHT22;720;47.738;7.998;2022-08-19T02:11:51;17.20;99.90
1453;DHT22;720;47.738;7.998;2022-08-19T02:14:16;17.20;99.90
1453;DHT22;720;47.738;7.998;2022-08-19T02:16:42;17.20;99.90
1453;DHT22;720;47.738;7.998;2022-08-19T02:19:08;17.20;99.90
1453;DHT22;720;47.738;7.998;2022-08-19T02:21:34;17.30;99.90
1453;DHT22;720;47.738;7.998;2022-08-19T02:23:59;17.30;99.90
1453;DHT22;720;47.738;7.998;2022-08-19T02:26:26;17.30;99.90
1453;DHT22;720;47.738;7.998;2022-08-19T02:28:53;17.30;99.90
1453;DHT22;720;47.738;7.998;2022-08-19T02:31:20;17.40;99.90
1453;DHT22;720;47.738;7.998;2022-08-19T02:33:47;17.40;99.90
1453;DHT22;720;47.738;7.998;2022-08-19T02:36:15;17.40;99.90
1453;DHT22;720;47.738;7.998;2022-08-19T02:38:41;17.40;99.90
1453;DHT22;720;47.738;7.998;2022-08-19T02:41:16;17.40;99.90
1453;DHT22;720;47.738;7.998;2022-08-19T02:43:42;17.40;99.90
1453;DHT22;720;47.738;7.998;2022-08-19T02:48:37;17.30;99.90
1453;DHT22;720;47.738;7.998;2022-08-19T02:51:03;17.30;99.90
1453;DHT22;720;47.738;7.998;2022-08-19T02:53:29;17.30;99.90
1453;DHT22;720;47.738;7.998;2022-08-19T02:55:54;17.30;99.90
1453;DHT22;720;47.738;7.998;2022-08-19T02:58:21;17.40;99.90
1453;DHT22;720;47.738;7.998;2022-08-19T03:00:50;17.40;99.90
1453;DHT22;720;47.738;7.998;2022-08-19T03:03:18;17.50;99.90
1453;DHT22;720;47.738;7.998;2022-08-19T03:05:44;17.40;99.90
1453;DHT22;720;47.738;7.998;2022-08-19T03:08:11;17.40;99.90
1453;DHT22;720;47.738;7.998;2022-08-19T03:10:42;17.40;99.90
1453;DHT22;720;47.738;7.998;2022-08-19T03:13:11;17.40;99.90
1453;DHT22;720;47.738;7.998;2022-08-19T03:15:45;17.40;99.90
1453;DHT22;720;47.738;7.998;2022-08-19T03:18:11;17.40;99.90
1453;DHT22;720;47.738;7.998;2022-08-19T03:20:46;17.40;99.90
1453;DHT22;720;47.738;7.998;2022-08-19T03:23:12;17.40;99.90
1453;DHT22;720;47.738;7.998;2022-08-19T03:25:40;17.40;99.90
1453;DHT22;720;47.738;7.998;2022-08-19T03:28:09;17.40;99.90
1453;DHT22;720;47.738;7.998;2022-08-19T03:30:35;17.40;99.90
1453;DHT22;720;47.738;7.998;2022-08-19T03:33:01;17.40;99.90
1453;DHT22;720;47.738;7.998;2022-08-19T03:35:27;17.50;99.90
1453;DHT22;720;47.738;7.998;2022-08-19T03:37:53;17.50;99.90
1453;DHT22;720;47.738;7.998;2022-08-19T03:40:18;17.60;99.90
1453;DHT22;720;47.738;7.998;2022-08-19T03:42:44;17.60;99.90
1453;DHT22;720;47.738;7.998;2022-08-19T03:45:11;17.60;99.90
1453;DHT22;720;47.738;7.998;2022-08-19T03:47:37;17.60;99.90
1453;DHT22;720;47.738;7.998;2022-08-19T03:50:04;17.50;99.90
1453;DHT22;720;47.738;7.998;2022-08-19T03:52:30;17.50;99.90
1453;DHT22;720;47.738;7.998;2022-08-19T03:54:56;17.60;99.90
1453;DHT22;720;47.738;7.998;2022-08-19T03:57:21;17.60;99.90
1453;DHT22;720;47.738;7.998;2022-08-19T03:59:47;17.60;99.90
1453;DHT22;720;47.738;7.998;2022-08-19T04:02:13;17.60;99.90
1453;DHT22;720;47.738;7.998;2022-08-19T04:04:41;17.60;99.90
1453;DHT22;720;47.738;7.998;2022-08-19T04:07:09;17.70;99.90
1453;DHT22;720;47.738;7.998;2022-08-19T04:09:35;17.70;99.90
1453;DHT22;720;47.738;7.998;2022-08-19T04:12:02;17.70;99.90
1453;DHT22;720;47.738;7.998;2022-08-19T04:14:29;17.70;99.90
1453;DHT22;720;47.738;7.998;2022-08-19T04:16:56;17.70;99.90
1453;DHT22;720;47.738;7.998;2022-08-19T04:19:22;17.70;99.90
1453;DHT22;720;47.738;7.998;2022-08-19T04:21:50;17.70;99.90
1453;DHT22;720;47.738;7.998;2022-08-19T04:24:17;17.60;99.90
1453;DHT22;720;47.738;7.998;2022-08-19T04:26:44;17.60;99.90
1453;DHT22;720;47.738;7.998;2022-08-19T04:29:19;17.50;99.90
1453;DHT22;720;47.738;7.998;2022-08-19T04:31:48;17.50;99.90
1453;DHT22;720;47.738;7.998;2022-08-19T04:34:18;17.60;99.90
1453;DHT22;720;47.738;7.998;2022-08-19T04:36:47;17.60;99.90
1453;DHT22;720;47.738;7.998;2022-08-19T04:39:18;17.50;99.90
1453;DHT22;720;47.738;7.998;2022-08-19T04:41:44;17.50;99.90
1453;DHT22;720;47.738;7.998;2022-08-19T04:44:31;17.50;99.90
1453;DHT22;720;47.738;7.998;2022-08-19T04:46:56;17.60;99.90
1453;DHT22;720;47.738;7.998;2022-08-19T04:49:22;17.60;99.90
1453;DHT22;720;47.738;7.998;2022-08-19T04:51:50;17.60;99.90
1453;DHT22;720;47.738;7.998;2022-08-19T04:54:17;17.60;99.90
1453;DHT22;720;47.738;7.998;2022-08-19T04:56:43;17.60;99.90
1453;DHT22;720;47.738;7.998;2022-08-19T04:59:09;17.60;99.90
1453;DHT22;720;47.738;7.998;2022-08-19T05:01:36;17.60;99.90
1453;DHT22;720;47.738;7.998;2022-08-19T05:04:03;17.60;99.90
1453;DHT22;720;47.738;7.998;2022-08-19T05:06:31;17.60;99.90
1453;DHT22;720;47.738;7.998;2022-08-19T05:09:00;17.50;99.90
1453;DHT22;720;47.738;7.998;2022-08-19T05:11:29;17.40;99.90
1453;DHT22;720;47.738;7.998;2022-08-19T05:13:56;17.40;99.90
1453;DHT22;720;47.738;7.998;2022-08-19T05:16:23;17.40;99.90
1453;DHT22;720;47.738;7.998;2022-08-19T05:18:49;17.50;99.90
1453;DHT22;720;47.738;7.998;2022-08-19T05:21:34;17.50;99.90
1453;DHT22;720;47.738;7.998;2022-08-19T05:24:20;17.60;99.90
1453;DHT22;720;47.738;7.998;2022-08-19T05:26:48;17.70;99.90
1453;DHT22;720;47.738;7.998;2022-08-19T05:29:16;17.80;99.90
1453;DHT22;720;47.738;7.998;2022-08-19T05:31:42;17.90;99.90
1453;DHT22;720;47.738;7.998;2022-08-19T05:34:09;17.90;99.90
1453;DHT22;720;47.738;7.998;2022-08-19T05:36:40;18.00;99.90
1453;DHT22;720;47.738;7.998;2022-08-19T05:39:13;17.90;99.90
1453;DHT22;720;47.738;7.998;2022-08-19T05:41:47;18.00;99.90
1453;DHT22;720;47.738;7.998;2022-08-19T05:44:14;18.00;99.90
1453;DHT22;720;47.738;7.998;2022-08-19T05:46:41;18.00;99.90
1453;DHT22;720;47.738;7.998;2022-08-19T05:49:08;18.10;99.90
1453;DHT22;720;47.738;7.998;2022-08-19T05:51:35;18.10;99.90
1453;DHT22;720;47.738;7.998;2022-08-19T05:54:03;18.20;99.90
1453;DHT22;720;47.738;7.998;2022-08-19T05:56:29;18.20;99.90
1453;DHT22;720;47.738;7.998;2022-08-19T05:58:56;18.20;99.90
1453;DHT22;720;47.738;7.998;2022-08-19T06:01:22;18.20;99.90
1453;DHT22;720;47.738;7.998;2022-08-19T06:03:47;18.20;99.90
1453;DHT22;720;47.738;7.998;2022-08-19T06:06:15;18.20;99.90
1453;DHT22;720;47.738;7.998;2022-08-19T06:08:42;18.20;99.90
1453;DHT22;720;47.738;7.998;2022-08-19T06:11:17;18.30;99.90
1453;DHT22;720;47.738;7.998;2022-08-19T06:13:44;18.30;99.90
1453;DHT22;720;47.738;7.998;2022-08-19T06:16:13;18.40;99.90
1453;DHT22;720;47.738;7.998;2022-08-19T06:18:44;18.40;99.90
1453;DHT22;720;47.738;7.998;2022-08-19T06:21:10;18.30;99.90
1453;DHT22;720;47.738;7.998;2022-08-19T06:23:36;18.30;99.90
1453;DHT22;720;47.738;7.998;2022-08-19T06:26:01;18.20;99.90
1453;DHT22;720;47.738;7.998;2022-08-19T06:28:27;18.20;99.90
1453;DHT22;720;47.738;7.998;2022-08-19T06:30:53;18.30;99.90
1453;DHT22;720;47.738;7.998;2022-08-19T06:33:18;18.40;99.90
1453;DHT22;720;47.738;7.998;2022-08-19T06:35:44;18.40;99.90
1453;DHT22;720;47.738;7.998;2022-08-19T06:38:10;18.50;99.90
1453;DHT22;720;47.738;7.998;2022-08-19T06:40:35;18.60;99.90
1453;DHT22;720;47.738;7.998;2022-08-19T06:43:03;18.70;99.90
1453;DHT22;720;47.738;7.998;2022-08-19T06:45:29;18.80;99.90
1453;DHT22;720;47.738;7.998;2022-08-19T06:47:55;18.90;99.90
1453;DHT22;720;47.738;7.998;2022-08-19T06:50:22;18.90;99.90
1453;DHT22;720;47.738;7.998;2022-08-19T06:52:48;19.00;99.90
1453;DHT22;720;47.738;7.998;2022-08-19T06:55:14;19.10;99.90
1453;DHT22;720;47.738;7.998;2022-08-19T06:57:41;19.20;99.90
1453;DHT22;720;47.738;7.998;2022-08-19T07:00:08;19.20;99.90
1453;DHT22;720;47.738;7.998;2022-08-19T07:02:39;19.20;99.90
1453;DHT22;720;47.738;7.998;2022-08-19T07:05:05;19.20;99.90
1453;DHT22;720;47.738;7.998;2022-08-19T07:07:31;19.20;99.90
1453;DHT22;720;47.738;7.998;2022-08-19T07:09:57;19.10;99.90
1453;DHT22;720;47.738;7.998;2022-08-19T07:12:22;19.10;99.90
1453;DHT22;720;47.738;7.998;2022-08-19T07:14:48;19.10;99.90
1453;DHT22;720;47.738;7.998;2022-08-19T07:17:14;19.10;99.90
1453;DHT22;720;47.738;7.998;2022-08-19T07:19:40;19.10;99.90
1453;DHT22;720;47.738;7.998;2022-08-19T07:22:07;19.10;99.90
1453;DHT22;720;47.738;7.998;2022-08-19T07:24:34;19.20;99.90
1453;DHT22;720;47.738;7.998;2022-08-19T07:27:02;19.20;99.90
1453;DHT22;720;47.738;7.998;2022-08-19T07:29:31;19.30;99.90
1453;DHT22;720;47.738;7.998;2022-08-19T07:31:59;19.40;99.90
1453;DHT22;720;47.738;7.998;2022-08-19T07:34:26;19.40;99.90
1453;DHT22;720;47.738;7.998;2022-08-19T07:36:53;19.50;99.90
1453;DHT22;720;47.738;7.998;2022-08-19T07:39:23;19.50;99.90
1453;DHT22;720;47.738;7.998;2022-08-19T07:41:49;19.50;99.90
1453;DHT22;720;47.738;7.998;2022-08-19T07:44:17;19.50;99.90
1453;DHT22;720;47.738;7.998;2022-08-19T07:46:46;19.50;99.90
1453;DHT22;720;47.738;7.998;2022-08-19T07:49:13;19.40;99.90
1453;DHT22;720;47.738;7.998;2022-08-19T07:51:47;19.40;99.90
1453;DHT22;720;47.738;7.998;2022-08-19T07:54:13;19.40;99.90
1453;DHT22;720;47.738;7.998;2022-08-19T07:56:39;19.40;99.90
1453;DHT22;720;47.738;7.998;2022-08-19T07:59:05;19.50;99.90
1453;DHT22;720;47.738;7.998;2022-08-19T08:01:30;19.60;99.90
1453;DHT22;720;47.738;7.998;2022-08-19T08:03:57;19.50;99.90
1453;DHT22;720;47.738;7.998;2022-08-19T08:06:42;19.60;99.90
1453;DHT22;720;47.738;7.998;2022-08-19T08:09:35;19.60;99.90
1453;DHT22;720;47.738;7.998;2022-08-19T08:14:46;19.40;99.90
1453;DHT22;720;47.738;7.998;2022-08-19T08:17:14;19.40;99.90
1453;DHT22;720;47.738;7.998;2022-08-19T08:19:41;19.40;99.90
1453;DHT22;720;47.738;7.998;2022-08-19T08:22:08;19.40;99.90
1453;DHT22;720;47.738;7.998;2022-08-19T08:24:53;19.30;99.90
1453;DHT22;720;47.738;7.998;2022-08-19T08:27:20;19.20;99.90
1453;DHT22;720;47.738;7.998;2022-08-19T08:29:45;19.20;99.90
1453;DHT22;720;47.738;7.998;2022-08-19T08:32:11;19.20;99.90
1453;DHT22;720;47.738;7.998;2022-08-19T08:34:36;19.10;99.90
1453;DHT22;720;47.738;7.998;2022-08-19T08:37:02;19.10;99.90
1453;DHT22;720;47.738;7.998;2022-08-19T08:39:28;19.10;99.90
1453;DHT22;720;47.738;7.998;2022-08-19T08:42:36;19.10;99.90
1453;DHT22;720;47.738;7.998;2022-08-19T08:45:12;19.10;99.90
1453;DHT22;720;47.738;7.998;2022-08-19T08:47:43;19.20;99.90
1453;DHT22;720;47.738;7.998;2022-08-19T08:50:23;19.20;99.90
1453;DHT22;720;47.738;7.998;2022-08-19T08:52:53;19.20;99.90
1453;DHT22;720;47.738;7.998;2022-08-19T08:55:25;19.20;99.90
1453;DHT22;720;47.738;7.998;2022-08-19T08:57:59;19.20;99.90
1453;DHT22;720;47.738;7.998;2022-08-19T09:00:40;19.10;99.90
1453;DHT22;720;47.738;7.998;2022-08-19T09:03:29;19.00;99.90
1453;DHT22;720;47.738;7.998;2022-08-19T09:10:55;18.80;99.90
1453;DHT22;720;47.738;7.998;2022-08-19T09:14:16;18.70;99.90
1453;DHT22;720;47.738;7.998;2022-08-19T09:16:30;18.70;99.90
1453;DHT22;720;47.738;7.998;2022-08-19T09:18:58;18.60;99.90
1453;DHT22;720;47.738;7.998;2022-08-19T09:21:26;18.70;99.90
1453;DHT22;720;47.738;7.998;2022-08-19T09:23:53;18.60;99.90
1453;DHT22;720;47.738;7.998;2022-08-19T09:26:21;18.50;99.90
1453;DHT22;720;47.738;7.998;2022-08-19T09:28:50;18.30;99.90
1453;DHT22;720;47.738;7.998;2022-08-19T09:31:20;18.20;99.90
1453;DHT22;720;47.738;7.998;2022-08-19T09:33:47;18.20;99.90
1453;DHT22;720;47.738;7.998;2022-08-19T09:36:14;18.20;99.90
1453;DHT22;720;47.738;7.998;2022-08-19T09:38:41;18.20;99.90
1453;DHT22;720;47.738;7.998;2022-08-19T09:41:10;18.30;99.90
1453;DHT22;720;47.738;7.998;2022-08-19T09:43:39;18.40;99.90
1453;DHT22;720;47.738;7.998;2022-08-19T09:46:07;18.40;99.90
1453;DHT22;720;47.738;7.998;2022-08-19T09:48:36;18.50;99.90
1453;DHT22;720;47.738;7.998;2022-08-19T09:51:07;18.60;99.90
1453;DHT22;720;47.738;7.998;2022-08-19T09:53:35;18.60;99.90
1453;DHT22;720;47.738;7.998;2022-08-19T09:56:02;18.70;99.90
1453;DHT22;720;47.738;7.998;2022-08-19T09:58:28;18.70;99.90
1453;DHT22;720;47.738;7.998;2022-08-19T10:00:56;18.70;99.90
1453;DHT22;720;47.738;7.998;2022-08-19T10:03:22;18.70;99.90
1453;DHT22;720;47.738;7.998;2022-08-19T10:05:48;18.70;99.90
1453;DHT22;720;47.738;7.998;2022-08-19T10:08:20;18.80;99.90
1453;DHT22;720;47.738;7.998;2022-08-19T10:10:45;18.90;99.90
1453;DHT22;720;47.738;7.998;2022-08-19T10:13:12;19.00;99.90
1453;DHT22;720;47.738;7.998;2022-08-19T10:15:38;19.00;99.90
1453;DHT22;720;47.738;7.998;2022-08-19T10:18:07;19.00;99.90
1453;DHT22;720;47.738;7.998;2022-08-19T10:20:33;19.00;99.90
1453;DHT22;720;47.738;7.998;2022-08-19T10:23:01;18.90;99.90
1453;DHT22;720;47.738;7.998;2022-08-19T10:25:27;18.80;99.90
1453;DHT22;720;47.738;7.998;2022-08-19T10:27:53;18.80;99.90
1453;DHT22;720;47.738;7.998;2022-08-19T10:30:19;18.80;99.90
1453;DHT22;720;47.738;7.998;2022-08-19T10:32:45;18.70;99.90
1453;DHT22;720;47.738;7.998;2022-08-19T10:35:12;18.80;99.90
1453;DHT22;720;47.738;7.998;2022-08-19T10:37:39;18.80;99.90
1453;DHT22;720;47.738;7.998;2022-08-19T10:40:07;18.90;99.90
1453;DHT22;720;47.738;7.998;2022-08-19T10:42:37;19.00;99.90
1453;DHT22;720;47.738;7.998;2022-08-19T10:45:04;19.10;99.90
1453;DHT22;720;47.738;7.998;2022-08-19T10:47:32;19.30;99.90
1453;DHT22;720;47.738;7.998;2022-08-19T10:49:58;19.50;99.90
1453;DHT22;720;47.738;7.998;2022-08-19T10:52:45;19.50;99.90
1453;DHT22;720;47.738;7.998;2022-08-19T10:55:11;19.40;99.90
1453;DHT22;720;47.738;7.998;2022-08-19T10:57:55;19.50;99.90
1453;DHT22;720;47.738;7.998;2022-08-19T11:00:23;19.50;99.90
1453;DHT22;720;47.738;7.998;2022-08-19T11:02:49;19.60;99.90
1453;DHT22;720;47.738;7.998;2022-08-19T11:05:15;19.60;99.90
1453;DHT22;720;47.738;7.998;2022-08-19T11:07:42;19.70;99.90
1453;DHT22;720;47.738;7.998;2022-08-19T11:10:11;19.70;99.90
1453;DHT22;720;47.738;7.998;2022-08-19T11:12:38;19.70;99.90
1453;DHT22;720;47.738;7.998;2022-08-19T11:15:07;19.70;99.90
1453;DHT22;720;47.738;7.998;2022-08-19T11:17:34;19.60;99.90
1453;DHT22;720;47.738;7.998;2022-08-19T11:20:01;19.80;99.90
1453;DHT22;720;47.738;7.998;2022-08-19T11:22:30;19.90;99.90
1453;DHT22;720;47.738;7.998;2022-08-19T11:24:55;20.00;99.90
1453;DHT22;720;47.738;7.998;2022-08-19T11:27:21;19.90;99.90
1453;DHT22;720;47.738;7.998;2022-08-19T11:29:47;19.90;99.90
1453;DHT22;720;47.738;7.998;2022-08-19T11:32:12;19.90;99.90
1453;DHT22;720;47.738;7.998;2022-08-19T11:34:38;19.90;99.90
1453;DHT22;720;47.738;7.998;2022-08-19T11:37:05;19.90;99.90
1453;DHT22;720;47.738;7.998;2022-08-19T11:39:32;19.90;99.90
1453;DHT22;720;47.738;7.998;2022-08-19T11:41:59;20.00;99.90
1453;DHT22;720;47.738;7.998;2022-08-19T11:44:25;20.20;99.90
1453;DHT22;720;47.738;7.998;2022-08-19T11:46:51;20.40;99.90
1453;DHT22;720;47.738;7.998;2022-08-19T11:49:19;20.40;99.90
1453;DHT22;720;47.738;7.998;2022-08-19T11:51:45;20.40;99.90
1453;DHT22;720;47.738;7.998;2022-08-19T11:54:13;20.40;99.90
1453;DHT22;720;47.738;7.998;2022-08-19T11:56:39;20.40;99.90
1453;DHT22;720;47.738;7.998;2022-08-19T11:59:05;20.60;99.90
1453;DHT22;720;47.738;7.998;2022-08-19T12:01:31;20.80;99.90
1453;DHT22;720;47.738;7.998;2022-08-19T12:03:57;20.80;99.90
1453;DHT22;720;47.738;7.998;2022-08-19T12:06:29;20.90;99.90
1453;DHT22;720;47.738;7.998;2022-08-19T12:08:56;21.00;99.90
1453;DHT22;720;47.738;7.998;2022-08-19T12:11:23;21.00;99.90
1453;DHT22;720;47.738;7.998;2022-08-19T12:13:48;20.80;99.90
1453;DHT22;720;47.738;7.998;2022-08-19T12:16:18;20.70;99.90
1453;DHT22;720;47.738;7.998;2022-08-19T12:18:44;20.80;99.90
1453;DHT22;720;47.738;7.998;2022-08-19T12:21:15;20.70;99.90
1453;DHT22;720;47.738;7.998;2022-08-19T12:23:42;20.80;99.90
1453;DHT22;720;47.738;7.998;2022-08-19T12:26:10;20.80;99.90
1453;DHT22;720;47.738;7.998;2022-08-19T12:28:36;20.70;99.90
1453;DHT22;720;47.738;7.998;2022-08-19T12:31:02;20.60;99.90
1453;DHT22;720;47.738;7.998;2022-08-19T12:33:28;20.80;99.90
1453;DHT22;720;47.738;7.998;2022-08-19T12:35:54;20.90;99.90
1453;DHT22;720;47.738;7.998;2022-08-19T12:38:20;21.10;99.90
1453;DHT22;720;47.738;7.998;2022-08-19T12:40:49;21.20;99.90
1453;DHT22;720;47.738;7.998;2022-08-19T12:43:17;21.50;99.90
1453;DHT22;720;47.738;7.998;2022-08-19T12:45:43;21.80;99.90
1453;DHT22;720;47.738;7.998;2022-08-19T12:48:10;22.10;99.90
1453;DHT22;720;47.738;7.998;2022-08-19T12:50:38;22.10;99.90
1453;DHT22;720;47.738;7.998;2022-08-19T12:53:04;22.10;99.90
1453;DHT22;720;47.738;7.998;2022-08-19T12:55:30;22.30;99.90
1453;DHT22;720;47.738;7.998;2022-08-19T12:57:55;22.50;99.90
1453;DHT22;720;47.738;7.998;2022-08-19T13:00:22;22.50;99.10
1453;DHT22;720;47.738;7.998;2022-08-19T13:02:50;22.50;99.20
1453;DHT22;720;47.738;7.998;2022-08-19T13:05:22;22.40;97.30
1453;DHT22;720;47.738;7.998;2022-08-19T13:07:49;22.10;97.00
1453;DHT22;720;47.738;7.998;2022-08-19T13:10:18;22.20;97.70
1453;DHT22;720;47.738;7.998;2022-08-19T13:12:47;22.30;97.60
1453;DHT22;720;47.738;7.998;2022-08-19T13:15:14;22.50;98.50
1453;DHT22;720;47.738;7.998;2022-08-19T13:17:46;22.60;99.40
1453;DHT22;720;47.738;7.998;2022-08-19T13:20:15;22.40;97.60
1453;DHT22;720;47.738;7.998;2022-08-19T13:22:42;22.40;96.30
1453;DHT22;720;47.738;7.998;2022-08-19T13:25:08;22.60;98.30
1453;DHT22;720;47.738;7.998;2022-08-19T13:27:34;22.60;98.90
1453;DHT22;720;47.738;7.998;2022-08-19T13:30:02;22.70;99.00
1453;DHT22;720;47.738;7.998;2022-08-19T13:32:47;22.80;98.40
1453;DHT22;720;47.738;7.998;2022-08-19T13:35:30;22.80;97.80
1453;DHT22;720;47.738;7.998;2022-08-19T13:37:56;22.70;98.50
1453;DHT22;720;47.738;7.998;2022-08-19T13:40:24;22.50;98.80
1453;DHT22;720;47.738;7.998;2022-08-19T13:42:53;22.40;99.90
1453;DHT22;720;47.738;7.998;2022-08-19T13:45:21;22.40;99.60
1453;DHT22;720;47.738;7.998;2022-08-19T13:47:49;22.30;97.80
1453;DHT22;720;47.738;7.998;2022-08-19T13:50:18;22.10;96.80
1453;DHT22;720;47.738;7.998;2022-08-19T13:52:44;21.80;98.20
1453;DHT22;720;47.738;7.998;2022-08-19T13:55:11;21.50;97.80
1453;DHT22;720;47.738;7.998;2022-08-19T13:57:38;21.50;98.90
1453;DHT22;720;47.738;7.998;2022-08-19T14:00:14;21.40;99.90
1453;DHT22;720;47.738;7.998;2022-08-19T14:02:40;21.20;99.90
1453;DHT22;720;47.738;7.998;2022-08-19T14:05:08;21.00;99.50
1453;DHT22;720;47.738;7.998;2022-08-19T14:07:34;20.90;99.90
1453;DHT22;720;47.738;7.998;2022-08-19T14:10:01;21.00;99.90
1453;DHT22;720;47.738;7.998;2022-08-19T14:12:27;21.10;99.90
1453;DHT22;720;47.738;7.998;2022-08-19T14:14:53;21.20;99.50
1453;DHT22;720;47.738;7.998;2022-08-19T14:17:19;21.20;99.90
1453;DHT22;720;47.738;7.998;2022-08-19T14:19:44;21.30;99.90
1453;DHT22;720;47.738;7.998;2022-08-19T14:22:10;21.40;99.90
1453;DHT22;720;47.738;7.998;2022-08-19T14:24:37;21.50;99.90
1453;DHT22;720;47.738;7.998;2022-08-19T14:27:05;21.60;99.90
1453;DHT22;720;47.738;7.998;2022-08-19T14:29:32;21.60;99.70
1453;DHT22;720;47.738;7.998;2022-08-19T14:31:58;21.70;99.90
1453;DHT22;720;47.738;7.998;2022-08-19T14:34:25;21.70;99.50
1453;DHT22;720;47.738;7.998;2022-08-19T14:36:51;21.70;99.20
1453;DHT22;720;47.738;7.998;2022-08-19T14:39:17;21.90;99.50
1453;DHT22;720;47.738;7.998;2022-08-19T14:41:43;22.10;99.00
1453;DHT22;720;47.738;7.998;2022-08-19T14:44:08;22.30;98.80
1453;DHT22;720;47.738;7.998;2022-08-19T14:46:38;22.50;98.20
1453;DHT22;720;47.738;7.998;2022-08-19T14:49:04;22.60;98.30
1453;DHT22;720;47.738;7.998;2022-08-19T14:51:30;22.60;97.70
1453;DHT22;720;47.738;7.998;2022-08-19T14:53:55;22.70;97.80
1453;DHT22;720;47.738;7.998;2022-08-19T14:56:25;22.70;97.50
1453;DHT22;720;47.738;7.998;2022-08-19T14:58:51;22.60;98.30
1453;DHT22;720;47.738;7.998;2022-08-19T15:01:18;22.50;98.60
1453;DHT22;720;47.738;7.998;2022-08-19T15:03:46;22.30;99.60
1453;DHT22;720;47.738;7.998;2022-08-19T15:06:12;22.40;97.50
1453;DHT22;720;47.738;7.998;2022-08-19T15:08:39;22.60;97.00
1453;DHT22;720;47.738;7.998;2022-08-19T15:11:10;22.70;97.60
1453;DHT22;720;47.738;7.998;2022-08-19T15:13:36;22.60;97.60
1453;DHT22;720;47.738;7.998;2022-08-19T15:16:02;22.50;97.80
1453;DHT22;720;47.738;7.998;2022-08-19T15:18:28;22.60;98.50
1453;DHT22;720;47.738;7.998;2022-08-19T15:20:54;22.50;97.60
1453;DHT22;720;47.738;7.998;2022-08-19T15:23:21;22.60;99.70
1453;DHT22;720;47.738;7.998;2022-08-19T15:25:47;22.40;99.60
1453;DHT22;720;47.738;7.998;2022-08-19T15:28:13;22.50;99.90
1453;DHT22;720;47.738;7.998;2022-08-19T15:30:41;22.50;98.00
1453;DHT22;720;47.738;7.998;2022-08-19T15:33:10;22.40;97.50
1453;DHT22;720;47.738;7.998;2022-08-19T15:35:38;22.20;98.20
1453;DHT22;720;47.738;7.998;2022-08-19T15:38:05;22.30;98.10
1453;DHT22;720;47.738;7.998;2022-08-19T15:40:32;22.40;97.50
1453;DHT22;720;47.738;7.998;2022-08-19T15:42:57;22.40;98.20
1453;DHT22;720;47.738;7.998;2022-08-19T15:45:23;22.50;97.70
1453;DHT22;720;47.738;7.998;2022-08-19T15:47:58;22.40;97.40
1453;DHT22;720;47.738;7.998;2022-08-19T15:50:24;22.20;97.90
1453;DHT22;720;47.738;7.998;2022-08-19T15:52:55;22.00;98.80
1453;DHT22;720;47.738;7.998;2022-08-19T15:55:28;22.00;99.00
1453;DHT22;720;47.738;7.998;2022-08-19T15:57:54;21.90;98.80
1453;DHT22;720;47.738;7.998;2022-08-19T16:00:38;21.90;98.90
1453;DHT22;720;47.738;7.998;2022-08-19T16:03:22;21.80;98.60
1453;DHT22;720;47.738;7.998;2022-08-19T16:06:07;21.70;98.50
1453;DHT22;720;47.738;7.998;2022-08-19T16:08:52;21.60;99.00
1453;DHT22;720;47.738;7.998;2022-08-19T16:11:21;21.40;99.10
1453;DHT22;720;47.738;7.998;2022-08-19T16:13:48;21.30;99.70
1453;DHT22;720;47.738;7.998;2022-08-19T16:16:24;21.20;99.50
1453;DHT22;720;47.738;7.998;2022-08-19T16:18:53;21.20;99.90
1453;DHT22;720;47.738;7.998;2022-08-19T16:21:20;21.20;99.90
1453;DHT22;720;47.738;7.998;2022-08-19T16:23:47;21.20;99.90
1453;DHT22;720;47.738;7.998;2022-08-19T16:26:15;21.20;99.90
1453;DHT22;720;47.738;7.998;2022-08-19T16:28:42;21.20;99.70
1453;DHT22;720;47.738;7.998;2022-08-19T16:31:08;21.20;99.90
1453;DHT22;720;47.738;7.998;2022-08-19T16:33:34;21.00;99.90